Address 0x890baa85555312d55d30e482e765716cf9ebdfcb 2

 
 
Txn Hash Method
Block
From
To
Value [Txn Fee]
0x5e31e3ca279039adb4191325b3e9d4412eba60ad34a5a61ecca2b3b20513c0adExecute Meta Tra...316842192022-08-09 5:20:319 mins ago0x890baa85555312d55d30e482e765716cf9ebdfcbOUT 0x25c4808dabf80ee1cc5d3656d55c38ee8f60ce130 MATIC0.007374445687 47.497089982
0x531727c5023747fc11e81eac474588ca78dbb94071aa3f4f67d0fbe54103026f0x41706c4e316840662022-08-09 5:13:0916 mins ago0x890baa85555312d55d30e482e765716cf9ebdfcbOUT 0x86c80a8aa58e0a4fa09a69624c31ab2a6cad56b80 MATIC0.01004211004 35.991419932
0x85b398fa04cb1524486ff52f72b770b35fc7f504b4b90122e301d0ed1a2f30aeExecute Meta Tra...316838412022-08-09 5:05:2724 mins ago0x890baa85555312d55d30e482e765716cf9ebdfcbOUT 0x89aac1f5ccdd54dd8a09e5c858f19a665e4fa32b0 MATIC0.008865272399 41.384735033
0xda298fa43dff53faf910bac0cfb1571be84acdd92f1b274df409af4b375031b8Execute Meta Tra...316837162022-08-09 4:59:1130 mins ago0x890baa85555312d55d30e482e765716cf9ebdfcbOUT 0x89aac1f5ccdd54dd8a09e5c858f19a665e4fa32b0 MATIC0.00854683646 39.898217035
0xaac5f483b5a272ba953bc793b3fbe191588b6d67752b21a9da15f4831ce3feecExecute Meta Tra...316835212022-08-09 4:52:1737 mins ago0x890baa85555312d55d30e482e765716cf9ebdfcbOUT 0x40ccd55b789fdee8d434915dc2aa6bd938506a920 MATIC0.002459580836 40.472270724
0x99b6e1666cff61011e77e8a604d4761b09f165442b3e9668cc4ba3e790cd36670x41706c4e316832022022-08-09 4:41:1948 mins ago0x890baa85555312d55d30e482e765716cf9ebdfcbOUT 0xf0511f123164602042ab2bcf02111fa5d3fe97cd0 MATIC0.005430539018 36.30549087
0x94ddc33393ce9a4385ac79cda07018fa23a265846a1448230883a94025d1c0040x41706c4e316829982022-08-09 4:33:5756 mins ago0x890baa85555312d55d30e482e765716cf9ebdfcbOUT 0x86c80a8aa58e0a4fa09a69624c31ab2a6cad56b80 MATIC0.005062400842 34.650245327
0x6d0215a2d1c0211f3e53a08933f9f24de34f3ab89ef54f035886c2112985bfc9Execute Meta Tra...316828322022-08-09 4:24:191 hr 5 mins ago0x890baa85555312d55d30e482e765716cf9ebdfcbOUT 0x89aac1f5ccdd54dd8a09e5c858f19a665e4fa32b0 MATIC0.007651148576 36.82544269
0x080858bc769f62abeca78f6baf0f37fb49c5011c9d4d262312927b4163ac8b15Execute Meta Tra...316826952022-08-09 4:17:451 hr 12 mins ago0x890baa85555312d55d30e482e765716cf9ebdfcbOUT 0xf1b5af2bd94ddfb696b54dabb06118a79c7460bc0 MATIC0.005037556299 36.930606422
0x3c83527dd54f234cffbcd6097f6495e11878198ea5fbb562a25f78c94f8b27770x41706c4e316824892022-08-09 4:10:211 hr 19 mins ago0x890baa85555312d55d30e482e765716cf9ebdfcbOUT 0x86c80a8aa58e0a4fa09a69624c31ab2a6cad56b80 MATIC0.005061949431 34.650001588
0xa90a07a10a3e1894ddd2226be48e5850546146a4243989f2eef45a587b4f3fcc0x41706c4e316823172022-08-09 4:04:291 hr 25 mins ago0x890baa85555312d55d30e482e765716cf9ebdfcbOUT 0x86c80a8aa58e0a4fa09a69624c31ab2a6cad56b80 MATIC0.004487937302 34.650000016
0x1f8ac76b70ce9dbe520b23be277dbff1566b64c799fd8e1790390cbaef8e8e6eExecute Meta Tra...316821062022-08-09 3:57:111 hr 32 mins ago0x890baa85555312d55d30e482e765716cf9ebdfcbOUT 0xf1b5af2bd94ddfb696b54dabb06118a79c7460bc0 MATIC0.004729378524 34.65000018
0x71e1f76ae836ea363911b93d3b82475924794c8b252b8f0c86b45f409f52ae130x41706c4e316819922022-08-09 3:51:291 hr 38 mins ago0x890baa85555312d55d30e482e765716cf9ebdfcbOUT 0x86c80a8aa58e0a4fa09a69624c31ab2a6cad56b80 MATIC0.00487161677 34.650000148
0xe3c504b62ff6949f5f7c7e7a971e5ec0efa455784c150f0fa92a6210573d38680x41706c4e316818512022-08-09 3:44:091 hr 45 mins ago0x890baa85555312d55d30e482e765716cf9ebdfcbOUT 0x86c80a8aa58e0a4fa09a69624c31ab2a6cad56b80 MATIC0.005503981553 38.401568118
0xf66e8d77c0062ec53f8fe847a0423f8a24e9210cae4524785e76c7844f7e8f46Execute Meta Tra...316816222022-08-09 3:36:191 hr 53 mins ago0x890baa85555312d55d30e482e765716cf9ebdfcbOUT 0x89aac1f5ccdd54dd8a09e5c858f19a665e4fa32b0 MATIC0.007879167077 37.922909578
0x980a459b53a9930789fdc247dec15a9104110f9545adfbaeec2daa433634ee41Execute Meta Tra...316814502022-08-09 3:27:332 hrs 2 mins ago0x890baa85555312d55d30e482e765716cf9ebdfcbOUT 0x7ee486098de195a5bb0ed2df5a7838e660b9f9e60 MATIC0.021739863495 37.929701368
0x4aec343f18cbdf91fac7ac1de6d944ddb7bdfbe2358989415b9e95db99d72ae50x41706c4e316812792022-08-09 3:20:132 hrs 9 mins ago0x890baa85555312d55d30e482e765716cf9ebdfcbOUT 0x86c80a8aa58e0a4fa09a69624c31ab2a6cad56b80 MATIC0.022061043046 37.751775921
0x7980e2fc399a39cce406112ae88345f1c20fb38a8c4ee030c51fc9d5b10ff9ccExecute Meta Tra...316811272022-08-09 3:15:012 hrs 15 mins ago0x890baa85555312d55d30e482e765716cf9ebdfcbOUT 0x89aac1f5ccdd54dd8a09e5c858f19a665e4fa32b0 MATIC0.007672763784 35.817883744
0x22a156a5a5383ca825268a0a922b4e46b4a87fa6356955cffbd22b6ec12cea83Execute Meta Tra...316809652022-08-09 3:09:292 hrs 20 mins ago0x890baa85555312d55d30e482e765716cf9ebdfcbOUT 0x89aac1f5ccdd54dd8a09e5c858f19a665e4fa32b0 MATIC0.006830485203 34.650000018
0x364753174304cee494e532e6a21b5c6728abff13dbb9a0d4d60683cdf81260120x41706c4e316805692022-08-09 2:55:372 hrs 34 mins ago0x890baa85555312d55d30e482e765716cf9ebdfcbOUT 0x86c80a8aa58e0a4fa09a69624c31ab2a6cad56b80 MATIC0.011229217272 40.249533219
0x7a04c3bbc6999b198cae10f3c948804a6d277d9fbcd3fdfac532ef92738b900d0x41706c4e316804262022-08-09 2:48:052 hrs 42 mins ago0x890baa85555312d55d30e482e765716cf9ebdfcbOUT 0x86c80a8aa58e0a4fa09a69624c31ab2a6cad56b80 MATIC0.005284392213 39.239856337
0x7acbd7b9652f9d1d27ff6585482519e52ae104fb33b3dc65e44ce5a3f4f52744Execute Meta Tra...316803332022-08-09 2:41:492 hrs 48 mins ago0x890baa85555312d55d30e482e765716cf9ebdfcbOUT 0xa5f1ea7df861952863df2e8d1312f7305dabf2150 MATIC0.00309606945 37.26253431
0xc2a2449274f914518c4800f8cc1e87425fea922ef48fd61778cae0be3099b5480x41706c4e316801942022-08-09 2:36:352 hrs 53 mins ago0x890baa85555312d55d30e482e765716cf9ebdfcbOUT 0x86c80a8aa58e0a4fa09a69624c31ab2a6cad56b80 MATIC0.009731630222 34.890649662
0xcdcc34765abd26563a680a31db3f8979f50ffbe9dfdb466d0565e87bbbd55407Execute Meta Tra...316799672022-08-09 2:28:453 hrs 1 min ago0x890baa85555312d55d30e482e765716cf9ebdfcbOUT 0x7adbced399630dd11a97f2e2dc206911167071ae0 MATIC0.00618339646 34.650000057
0x9d1381771f15bc5fde6d338253954a4c721e6efcc301f20e5ab0d2f50eed2464Execute Meta Tra...316797782022-08-09 2:22:153 hrs 7 mins ago0x890baa85555312d55d30e482e765716cf9ebdfcbOUT 0x89aac1f5ccdd54dd8a09e5c858f19a665e4fa32b0 MATIC0.008697383292 40.598723288
[ Download CSV Export 
Parent Txn Hash Block From To Value
Loading

Contract Name:
0 MATIC

Compiler Version
0

Optimization Enabled:
0 MATIC

Other Settings:
-NA-
Block Transaction Gas Used Reward
Age Block Fee Address BC Fee Address Voting Power Jailed Incoming
Block Uncle Number Difficulty Gas Used Reward
Loading
Loading
Make sure to use the "Vote Down" button for any spammy posts, and the "Vote Up" for interesting conversations.